Time;durP1;ratioP1;P1;durP2;ratioP2;P2;SDS_P1;SDS_P2;PMS_P1;PMS_P2;Temp;Humidity;BMP_temperature;BMP_pressure;BME280_temperature;BME280_humidity;BME280_pressure;Samples;Min_cycle;Max_cycle;Signal;HPM_P1;HPM_P2
2021/10/05 00:02:19;;;;;;;;;3.75;2.75;;;;;15.33;63.47;100396.19;5055683;28;45330;-61
2021/10/05 00:04:45;;;;;;;;;1.75;1.75;;;;;15.31;63.64;100382.31;5055357;28;59852;-61
2021/10/05 00:07:10;;;;;;;;;3.50;2.50;;;;;15.30;63.98;100394.72;5020995;28;45790;-61
2021/10/05 00:09:37;;;;;;;;;5.75;1.75;;;;;15.27;64.09;100390.59;5021691;28;46582;-61
2021/10/05 00:12:03;;;;;;;;;4.00;2.00;;;;;15.26;63.80;100388.94;5055711;28;45327;-61
2021/10/05 00:14:28;;;;;;;;;3.25;1.75;;;;;15.23;64.01;100372.56;5038110;28;45226;-61
2021/10/05 00:16:54;;;;;;;;;1.75;1.75;;;;;15.21;64.24;100372.75;5055716;28;45199;-61
2021/10/05 00:19:19;;;;;;;;;3.75;1.75;;;;;15.18;64.42;100375.72;5054613;28;69269;-61
2021/10/05 00:21:45;;;;;;;;;2.50;1.75;;;;;15.17;64.63;100366.13;5054524;28;67665;-61
2021/10/05 00:24:11;;;;;;;;;1.75;1.75;;;;;15.17;64.73;100367.94;5055494;28;45247;-61
2021/10/05 00:26:36;;;;;;;;;2.25;2.25;;;;;15.16;64.47;100371.59;5055806;28;45566;-61
2021/10/05 00:29:02;;;;;;;;;0.00;0.00;;;;;15.14;65.03;100363.84;5040854;28;45452;-61
2021/10/05 00:31:27;;;;;;;;;3.00;0.75;;;;;15.13;64.77;100372.75;5058200;28;64686;-61
2021/10/05 00:33:52;;;;;;;;;3.25;1.75;;;;;15.15;64.80;100362.84;5058204;28;64757;-61
2021/10/05 00:36:18;;;;;;;;;2.00;0.00;;;;;15.12;65.12;100349.94;5058711;28;48003;-61
2021/10/05 00:38:43;;;;;;;;;1.00;1.00;;;;;15.10;65.46;100358.03;5058346;28;58920;-61
2021/10/05 00:41:08;;;;;;;;;1.25;1.25;;;;;15.13;64.96;100356.88;5057897;28;68772;-61
2021/10/05 00:43:34;;;;;;;;;3.50;2.00;;;;;15.13;65.06;100344.47;5057832;28;68543;-61
2021/10/05 00:45:59;;;;;;;;;1.75;1.75;;;;;15.11;65.18;100337.72;5058126;28;62774;-61
2021/10/05 00:48:25;;;;;;;;;1.25;0.75;;;;;15.08;65.43;100343.34;5058690;28;45508;-61
2021/10/05 00:50:50;;;;;;;;;1.25;1.25;;;;;15.09;65.00;100345.00;5058121;28;58002;-61
2021/10/05 00:53:15;;;;;;;;;2.50;2.50;;;;;15.05;65.21;100344.53;5057931;28;62153;-61
2021/10/05 00:55:41;;;;;;;;;0.75;0.75;;;;;15.03;65.10;100335.09;5057975;28;57062;-61
2021/10/05 00:58:06;;;;;;;;;2.50;0.75;;;;;15.02;65.25;100330.78;5058381;28;46605;-61
2021/10/05 01:00:32;;;;;;;;;2.00;2.00;;;;;14.99;65.22;100324.03;5058353;28;45305;-61
2021/10/05 01:02:57;;;;;;;;;4.00;1.25;;;;;14.98;65.38;100323.19;5024008;28;45404;-61
2021/10/05 01:05:23;;;;;;;;;2.00;0.75;;;;;14.96;65.87;100314.59;5040525;28;45253;-62
2021/10/05 01:07:48;;;;;;;;;2.25;1.00;;;;;14.95;65.63;100318.25;5057571;28;68171;-61
2021/10/05 01:10:17;;;;;;;;;2.00;2.00;;;;;14.95;66.06;100307.66;5058453;28;45297;-61
2021/10/05 01:12:44;;;;;;;;;1.75;1.75;;;;;14.94;65.68;100303.34;5041207;28;45331;-61
2021/10/05 01:15:09;;;;;;;;;1.00;1.00;;;;;14.90;65.76;100307.34;5040602;28;45360;-61
2021/10/05 01:17:35;;;;;;;;;1.00;1.00;;;;;14.89;65.94;100299.59;5058218;28;45421;-61
2021/10/05 01:20:00;;;;;;;;;0.50;0.50;;;;;14.85;65.90;100301.72;5057346;28;68166;-61
2021/10/05 01:22:25;;;;;;;;;2.25;1.25;;;;;14.83;66.08;100295.81;5056968;28;69234;-61
2021/10/05 01:24:51;;;;;;;;;1.25;1.25;;;;;14.81;66.17;100293.31;5057519;28;61447;-61
2021/10/05 01:27:16;;;;;;;;;1.50;1.50;;;;;14.82;66.23;100291.50;5057968;28;46237;-61
2021/10/05 01:29:42;;;;;;;;;1.50;1.50;;;;;14.81;66.15;100285.38;5057346;28;65467;-61
2021/10/05 01:32:07;;;;;;;;;1.25;0.50;;;;;14.78;66.13;100282.28;5057113;28;64809;-61
2021/10/05 01:34:32;;;;;;;;;2.00;1.50;;;;;14.77;66.23;100277.97;5058088;28;45267;-62
2021/10/05 01:36:58;;;;;;;;;2.75;2.00;;;;;14.74;66.23;100273.03;5056754;28;75341;-61
2021/10/05 01:39:38;;;;;;;;;1.50;1.50;;;;;14.71;65.76;100268.88;5056715;28;45289;-61
2021/10/05 01:42:11;;;;;;;;;1.50;1.50;;;;;14.68;66.48;100267.38;5041700;28;45438;-61
2021/10/05 01:44:37;;;;;;;;;2.00;1.50;;;;;14.66;66.04;100263.25;5057927;28;45358;-61
2021/10/05 01:47:03;;;;;;;;;3.25;2.00;;;;;14.62;66.38;100265.41;5057696;28;45424;-62
2021/10/05 01:49:29;;;;;;;;;1.25;1.25;;;;;14.60;66.46;100251.53;5057591;28;45865;-61
2021/10/05 01:51:54;;;;;;;;;1.25;1.25;;;;;14.60;66.16;100250.69;5057035;28;60890;-61
2021/10/05 01:54:20;;;;;;;;;1.50;1.50;;;;;14.56;66.45;100236.19;5056798;28;67045;-61
2021/10/05 01:56:45;;;;;;;;;2.50;1.50;;;;;14.53;66.68;100235.53;5039402;28;47462;-61
2021/10/05 01:59:11;;;;;;;;;1.75;0.50;;;;;14.52;66.49;100233.03;5057262;28;45450;-61
2021/10/05 02:01:38;;;;;;;;;1.25;1.25;;;;;14.48;66.37;100221.16;5057664;28;45323;-61
2021/10/05 02:04:03;;;;;;;;;2.25;1.25;;;;;14.47;66.61;100219.50;5057621;28;45301;-61
2021/10/05 02:06:29;;;;;;;;;0.50;0.50;;;;;14.43;66.75;100208.47;5056426;28;74270;-61
2021/10/05 02:08:54;;;;;;;;;0.50;0.50;;;;;14.40;66.91;100199.03;5056430;28;69845;-61
2021/10/05 02:11:20;;;;;;;;;1.50;1.50;;;;;14.38;66.96;100195.75;5056801;28;63850;-61
2021/10/05 02:13:45;;;;;;;;;1.75;0.50;;;;;14.35;66.68;100201.38;5056454;28;66463;-61
2021/10/05 02:16:10;;;;;;;;;1.50;0.75;;;;;14.33;66.96;100198.06;5056154;28;72520;-61
2021/10/05 02:18:36;;;;;;;;;2.00;1.75;;;;;14.31;66.99;100191.31;5057187;28;45383;-61
2021/10/05 02:21:01;;;;;;;;;3.00;1.75;;;;;14.29;67.07;100185.38;5056555;28;60785;-61
2021/10/05 02:26:10;;;;;;;;;2.75;2.00;;;;;14.25;67.18;100182.25;5057164;28;45923;-61
2021/10/05 02:28:36;;;;;;;;;1.00;1.00;;;;;14.23;67.50;100176.31;5057075;28;45351;-61
2021/10/05 02:31:01;;;;;;;;;2.75;1.00;;;;;14.21;67.81;100173.81;5057184;28;45706;-60
2021/10/05 02:33:26;;;;;;;;;2.00;2.00;;;;;14.21;67.95;100167.72;5056373;28;59036;-61
2021/10/05 02:35:52;;;;;;;;;2.50;1.00;;;;;14.21;67.55;100149.22;5055793;28;74657;-61
2021/10/05 02:38:17;;;;;;;;;2.00;1.75;;;;;14.20;67.80;100150.22;5056072;28;65937;-61
2021/10/05 02:40:42;;;;;;;;;3.25;2.00;;;;;14.19;68.00;100140.66;5056344;28;61921;-61
2021/10/05 02:43:08;;;;;;;;;1.00;1.00;;;;;14.17;68.39;100145.28;5056145;28;61241;-61
2021/10/05 02:45:33;;;;;;;;;2.50;2.50;;;;;14.14;68.10;100135.03;5056057;28;66186;-61
2021/10/05 02:47:59;;;;;;;;;6.75;2.00;;;;;14.13;68.66;100128.91;5056743;28;45412;-61
2021/10/05 02:50:24;;;;;;;;;1.00;1.00;;;;;14.12;68.89;100124.63;5054843;28;45347;-61
2021/10/05 02:52:49;;;;;;;;;4.50;2.25;;;;;14.13;68.35;100128.09;5056860;28;45235;-61
2021/10/05 02:55:15;;;;;;;;;1.00;1.00;;;;;14.13;68.83;100122.81;5055806;28;73305;-61
2021/10/05 02:57:40;;;;;;;;;1.50;1.50;;;;;14.13;68.96;100122.81;5055733;28;68598;-61
2021/10/05 03:00:06;;;;;;;;;1.25;1.00;;;;;14.15;68.92;100120.84;5056079;28;60714;-61
2021/10/05 03:02:32;;;;;;;;;1.50;1.50;;;;;14.15;68.49;100118.19;5056566;28;45370;-61
2021/10/05 03:04:57;;;;;;;;;1.50;1.25;;;;;14.16;68.69;100115.38;5037627;28;73233;-61
2021/10/05 03:07:22;;;;;;;;;3.25;2.00;;;;;14.15;68.57;100107.63;5056222;28;51963;-61
2021/10/05 03:09:48;;;;;;;;;2.00;2.00;;;;;14.13;69.17;100102.50;5038085;28;60097;-61
2021/10/05 03:12:13;;;;;;;;;2.50;1.00;;;;;14.12;68.79;100102.69;5056816;28;45304;-61
2021/10/05 03:14:38;;;;;;;;;1.00;1.00;;;;;14.09;69.10;100096.75;5056525;28;45614;-61
2021/10/05 03:17:04;;;;;;;;;2.25;2.00;;;;;14.06;69.40;100086.50;5037771;28;53849;-61
2021/10/05 03:19:29;;;;;;;;;1.25;1.00;;;;;14.07;69.55;100089.97;5056041;28;60442;-61
2021/10/05 03:21:56;;;;;;;;;1.00;1.00;;;;;14.08;69.43;100086.34;5055669;28;65028;-60
2021/10/05 03:24:22;;;;;;;;;3.25;3.00;;;;;14.07;69.54;100087.31;5056186;28;46682;-61
2021/10/05 03:26:47;;;;;;;;;2.00;1.00;;;;;14.07;69.30;100093.44;5056170;28;48822;-61
2021/10/05 03:29:13;;;;;;;;;1.00;1.00;;;;;14.06;69.47;100078.59;5055767;28;61719;-61
2021/10/05 03:31:38;;;;;;;;;0.50;0.50;;;;;14.06;69.65;100070.66;5056302;28;45285;-61
2021/10/05 03:34:04;;;;;;;;;3.00;2.00;;;;;14.05;69.67;100066.38;5056151;28;45356;-60
2021/10/05 03:36:29;;;;;;;;;3.25;1.75;;;;;14.05;69.73;100053.16;5056034;28;45402;-61
2021/10/05 03:38:55;;;;;;;;;1.25;1.25;;;;;14.06;69.85;100046.06;5056227;28;45519;-61
2021/10/05 03:41:20;;;;;;;;;1.75;1.75;;;;;14.07;69.75;100045.91;5056169;28;45292;-61
2021/10/05 03:43:45;;;;;;;;;3.00;1.25;;;;;14.09;69.70;100043.06;5055835;28;45265;-61
2021/10/05 03:46:11;;;;;;;;;1.25;1.25;;;;;14.08;69.95;100041.41;5055254;28;68969;-61
2021/10/05 03:48:36;;;;;;;;;2.00;1.00;;;;;14.06;70.06;100038.97;5055977;28;45390;-61
2021/10/05 03:51:02;;;;;;;;;1.00;1.00;;;;;14.09;70.18;100037.78;5056082;28;45217;-61
2021/10/05 03:53:27;;;;;;;;;1.75;1.75;;;;;14.05;70.23;100032.03;5055542;28;55567;-61
2021/10/05 03:55:54;;;;;;;;;2.00;2.00;;;;;14.02;70.41;100027.09;5055165;28;67383;-61
2021/10/05 03:58:20;;;;;;;;;3.00;1.00;;;;;14.00;70.34;100029.09;5056050;28;45235;-61
2021/10/05 04:00:45;;;;;;;;;3.75;1.50;;;;;14.01;70.25;100030.72;5056039;28;45197;-61
2021/10/05 04:03:11;;;;;;;;;3.75;1.50;;;;;14.02;70.33;100015.72;5057131;28;70627;-61
2021/10/05 04:05:36;;;;;;;;;5.75;5.00;;;;;14.01;70.26;100006.16;5058608;28;65804;-61
2021/10/05 04:08:02;;;;;;;;;1.75;1.25;;;;;14.00;70.38;99993.94;5059475;28;45315;-61
2021/10/05 04:10:28;;;;;;;;;3.75;2.00;;;;;13.99;70.27;99995.75;5059366;28;45637;-61
2021/10/05 04:12:54;;;;;;;;;4.50;2.00;;;;;14.00;70.71;99986.00;5059057;28;46739;-61
2021/10/05 04:15:19;;;;;;;;;2.25;1.50;;;;;14.00;70.46;99983.38;5059209;28;45320;-61
2021/10/05 04:17:44;;;;;;;;;1.50;1.00;;;;;14.01;70.33;99993.75;5058577;28;61520;-61
2021/10/05 04:20:11;;;;;;;;;4.25;1.00;;;;;14.02;70.44;99990.13;5058260;28;65693;-60
2021/10/05 04:22:37;;;;;;;;;1.75;1.75;;;;;14.01;70.98;99988.47;5058501;28;46538;-61
2021/10/05 04:25:05;;;;;;;;;2.00;2.00;;;;;14.03;70.60;99986.47;5024422;28;45457;-61
2021/10/05 04:27:31;;;;;;;;;2.00;2.00;;;;;14.05;70.90;99983.66;5041651;28;45318;-61
2021/10/05 04:29:58;;;;;;;;;4.75;1.00;;;;;14.05;70.76;99983.66;5059022;28;45629;-61
2021/10/05 04:32:23;;;;;;;;;3.75;1.25;;;;;14.02;70.62;99979.56;5039877;28;72039;-61
2021/10/05 04:34:48;;;;;;;;;1.00;1.00;;;;;14.03;70.58;99972.47;5057919;28;70853;-60
2021/10/05 04:37:14;;;;;;;;;2.75;2.50;;;;;14.03;71.03;99968.00;5058886;28;45705;-61
2021/10/05 04:39:39;;;;;;;;;3.00;2.00;;;;;14.04;70.75;99966.19;5058424;28;49809;-61
2021/10/05 04:42:05;;;;;;;;;1.75;1.75;;;;;14.04;70.79;99967.00;5057524;28;73441;-61
2021/10/05 04:44:30;;;;;;;;;4.00;2.00;;;;;14.05;70.65;99968.63;5058761;28;45425;-61
2021/10/05 04:46:55;;;;;;;;;2.00;2.00;;;;;14.09;70.72;99963.81;5058077;28;57969;-61
2021/10/05 04:49:21;;;;;;;;;3.50;2.00;;;;;14.07;70.59;99958.72;5039756;28;65016;-61
2021/10/05 04:51:46;;;;;;;;;7.00;3.00;;;;;14.09;70.69;99964.66;5039576;28;71850;-61
2021/10/05 04:54:11;;;;;;;;;4.25;2.50;;;;;14.10;70.64;99950.47;5057739;28;71405;-61
2021/10/05 04:56:37;;;;;;;;;2.00;2.00;;;;;14.13;70.71;99948.47;5040348;28;50856;-61
2021/10/05 04:59:02;;;;;;;;;2.00;2.00;;;;;14.14;70.42;99944.81;5039738;28;65932;-61
2021/10/05 05:01:28;;;;;;;;;3.00;3.00;;;;;14.15;70.33;99935.91;5058001;28;47421;-61
2021/10/05 05:03:53;;;;;;;;;3.50;3.00;;;;;14.15;70.47;99933.25;5058305;28;45260;-61
2021/10/05 05:06:18;;;;;;;;;3.00;3.00;;;;;14.14;70.63;99934.25;5058437;28;45253;-61
2021/10/05 05:08:44;;;;;;;;;5.00;4.00;;;;;14.13;70.59;99932.63;5058249;28;45639;-61
2021/10/05 05:11:09;;;;;;;;;4.50;3.50;;;;;14.12;70.47;99925.69;5057240;28;67088;-61
2021/10/05 05:13:35;;;;;;;;;4.75;3.75;;;;;14.12;70.62;99912.47;5056436;28;45287;-60
2021/10/05 05:16:00;;;;;;;;;3.50;3.50;;;;;14.09;70.12;99895.13;5057473;28;54164;-61
2021/10/05 05:18:25;;;;;;;;;5.25;3.00;;;;;14.10;70.76;99896.78;5057417;28;65155;-61
2021/10/05 05:20:51;;;;;;;;;5.25;3.50;;;;;14.09;70.45;99887.22;5057569;28;56878;-61
2021/10/05 05:23:16;;;;;;;;;4.00;3.00;;;;;14.10;70.37;99889.69;5056758;28;66157;-61
2021/10/05 05:25:41;;;;;;;;;6.00;3.00;;;;;14.09;70.33;99888.06;5057613;28;53462;-61
2021/10/05 05:28:08;;;;;;;;;4.00;4.00;;;;;14.10;70.57;99881.78;5057216;28;58532;-61
2021/10/05 05:30:35;;;;;;;;;4.25;3.25;;;;;14.12;70.22;99873.66;5057679;28;46173;-61
2021/10/05 05:33:00;;;;;;;;;5.00;4.00;;;;;14.13;70.84;99874.50;5057527;28;49143;-61
2021/10/05 05:35:25;;;;;;;;;5.75;4.00;;;;;14.12;70.54;99871.00;5057200;28;54736;-61
2021/10/05 05:37:51;;;;;;;;;4.00;4.00;;;;;14.11;70.89;99869.38;5057270;28;61605;-61
2021/10/05 05:40:16;;;;;;;;;9.75;6.50;;;;;14.12;70.41;99865.72;5057193;28;63979;-61
2021/10/05 05:42:41;;;;;;;;;7.25;6.00;;;;;14.13;70.48;99853.34;5038600;28;69146;-60
2021/10/05 05:45:07;;;;;;;;;7.75;5.25;;;;;14.12;71.00;99854.34;5057741;28;47561;-61
2021/10/05 05:47:32;;;;;;;;;6.00;5.00;;;;;14.13;70.78;99848.06;5057466;28;45375;-61
2021/10/05 05:49:59;;;;;;;;;7.75;5.00;;;;;14.15;71.00;99846.88;5056430;28;71993;-61
2021/10/05 05:52:25;;;;;;;;;6.75;6.00;;;;;14.17;71.05;99836.16;5038910;28;45245;-61
2021/10/05 05:54:50;;;;;;;;;8.00;6.00;;;;;14.18;70.99;99832.53;5039627;28;45364;-61
2021/10/05 05:57:16;;;;;;;;;5.50;5.50;;;;;14.17;71.14;99831.69;5056832;28;65404;-61
2021/10/05 05:59:41;;;;;;;;;5.25;4.00;;;;;14.18;70.63;99830.69;5056702;28;67660;-61
2021/10/05 06:02:06;;;;;;;;;5.75;5.75;;;;;14.18;70.97;99829.88;5057215;28;45368;-61
2021/10/05 06:04:32;;;;;;;;;6.00;5.00;;;;;14.17;70.99;99831.69;5057023;28;54485;-61
2021/10/05 06:06:57;;;;;;;;;5.00;4.00;;;;;14.18;70.83;99835.16;5056734;28;59472;-61
2021/10/05 06:09:23;;;;;;;;;6.25;4.00;;;;;14.18;70.93;99837.81;5057279;28;48645;-61
2021/10/05 06:11:50;;;;;;;;;4.50;3.50;;;;;14.19;71.33;99826.22;5057084;28;45331;-61
2021/10/05 06:14:15;;;;;;;;;4.00;3.00;;;;;14.15;71.12;99824.94;5057565;28;45415;-61
2021/10/05 06:16:41;;;;;;;;;3.25;2.75;;;;;14.15;71.45;99832.88;5056546;28;61818;-61
2021/10/05 06:19:06;;;;;;;;;3.25;3.00;;;;;14.17;71.05;99841.44;5056046;28;68547;-61
2021/10/05 06:21:31;;;;;;;;;4.00;4.00;;;;;14.17;71.36;99829.03;5056142;28;63074;-61
2021/10/05 06:23:57;;;;;;;;;4.25;3.00;;;;;14.17;71.16;99825.59;5056087;28;62734;-61
2021/10/05 06:26:22;;;;;;;;;4.75;3.00;;;;;14.19;71.54;99821.75;5056409;28;45304;-61
2021/10/05 06:28:48;;;;;;;;;2.75;2.75;;;;;14.20;71.14;99828.69;5056074;28;69614;-61
2021/10/05 06:31:13;;;;;;;;;5.00;3.00;;;;;14.22;70.92;99799.47;5055994;28;67349;-61
2021/10/05 06:33:39;;;;;;;;;3.00;3.00;;;;;14.22;71.28;99800.28;5038958;28;45475;-61
2021/10/05 06:36:04;;;;;;;;;2.00;2.00;;;;;14.24;70.85;99797.47;5056873;28;45584;-61
2021/10/05 06:38:29;;;;;;;;;4.00;2.00;;;;;14.27;70.92;99796.28;5055784;28;68297;-61
2021/10/05 06:40:55;;;;;;;;;3.25;3.25;;;;;14.25;71.36;99794.63;5055757;28;70615;-61
2021/10/05 06:43:20;;;;;;;;;3.00;3.00;;;;;14.28;70.95;99790.81;5055628;28;63994;-60
2021/10/05 06:45:46;;;;;;;;;2.50;2.00;;;;;14.30;71.09;99775.63;5056780;28;45396;-61
2021/10/05 06:48:12;;;;;;;;;2.00;2.00;;;;;14.30;70.82;99778.25;5038393;28;45408;-61
2021/10/05 06:50:37;;;;;;;;;2.00;2.00;;;;;14.31;70.70;99771.13;5055709;28;64277;-61
2021/10/05 06:53:03;;;;;;;;;2.00;1.00;;;;;14.33;70.81;99777.06;5056763;28;45531;-61
2021/10/05 06:55:29;;;;;;;;;3.75;3.00;;;;;14.33;70.85;99780.50;5056415;28;45542;-61
2021/10/05 06:57:55;;;;;;;;;3.00;1.00;;;;;14.38;71.06;99775.50;5056421;28;45564;-61
2021/10/05 07:00:21;;;;;;;;;2.25;1.25;;;;;14.38;71.36;99783.44;5056427;28;45271;-61
2021/10/05 07:02:47;;;;;;;;;3.75;2.00;;;;;14.37;71.41;99781.81;5056069;28;45377;-61
2021/10/05 07:05:17;;;;;;;;;2.75;2.00;;;;;14.38;71.42;99780.81;5055802;28;45335;-60
2021/10/05 07:07:47;;;;;;;;;2.75;2.00;;;;;14.38;72.17;99778.16;5055981;28;46206;-61
2021/10/05 07:10:13;;;;;;;;;3.00;2.00;;;;;14.38;72.12;99772.06;5055056;28;45823;-61
2021/10/05 07:12:38;;;;;;;;;1.00;1.00;;;;;14.38;72.27;99778.16;5054932;28;45414;-61
2021/10/05 07:15:05;;;;;;;;;2.50;2.50;;;;;14.39;72.24;99773.72;5056086;28;45340;-61
2021/10/05 07:17:31;;;;;;;;;4.50;2.00;;;;;14.39;72.28;99774.50;5055743;28;46095;-61
2021/10/05 07:19:56;;;;;;;;;3.75;2.00;;;;;14.39;72.27;99774.50;5036786;28;72499;-61
2021/10/05 07:22:22;;;;;;;;;2.00;2.00;;;;;14.39;72.82;99757.84;5037670;28;45369;-61
2021/10/05 07:24:47;;;;;;;;;2.50;2.25;;;;;14.39;73.45;99748.09;5037895;28;45387;-61
2021/10/05 07:27:12;;;;;;;;;2.75;2.00;;;;;14.38;73.24;99757.00;5055070;28;70728;-61
2021/10/05 07:29:38;;;;;;;;;3.00;3.00;;;;;14.37;73.39;99760.66;5055902;28;45344;-61
2021/10/05 07:32:04;;;;;;;;;2.00;2.00;;;;;14.37;73.11;99765.94;5055268;28;64145;-61
2021/10/05 07:34:29;;;;;;;;;3.00;3.00;;;;;14.37;73.28;99749.28;5055852;28;45389;-61
2021/10/05 07:36:54;;;;;;;;;1.75;1.75;;;;;14.37;73.64;99744.81;5056853;28;74063;-61
2021/10/05 07:39:20;;;;;;;;;3.00;2.00;;;;;14.36;73.69;99743.16;5055848;28;70688;-61
2021/10/05 07:41:45;;;;;;;;;2.00;2.00;;;;;14.36;73.77;99737.88;5057466;28;65283;-61
2021/10/05 07:44:11;;;;;;;;;3.25;1.00;;;;;14.35;74.14;99712.44;5058442;28;45482;-61
2021/10/05 07:46:37;;;;;;;;;2.50;2.50;;;;;14.32;74.05;99715.44;5057504;28;45562;-61
2021/10/05 07:49:03;;;;;;;;;3.00;2.00;;;;;14.31;74.10;99719.09;5055567;28;45359;-61
2021/10/05 07:51:28;;;;;;;;;2.00;1.75;;;;;14.28;74.91;99722.13;5057907;28;45368;-61
2021/10/05 07:53:53;;;;;;;;;3.00;1.00;;;;;14.24;74.39;99712.91;5057375;28;59336;-61
2021/10/05 07:56:19;;;;;;;;;2.75;2.00;;;;;14.22;74.70;99710.44;5057499;28;45320;-61
2021/10/05 07:58:44;;;;;;;;;2.00;2.00;;;;;14.22;75.08;99688.50;5057458;28;45329;-61
2021/10/05 08:01:10;;;;;;;;;1.75;1.75;;;;;14.19;75.23;99702.06;5057231;28;63904;-61
2021/10/05 08:03:35;;;;;;;;;1.25;1.25;;;;;14.18;75.16;99689.84;5057022;28;62576;-60
2021/10/05 08:06:00;;;;;;;;;1.75;1.25;;;;;14.15;75.03;99688.38;5057329;28;45489;-61
2021/10/05 08:08:26;;;;;;;;;2.50;1.50;;;;;14.13;75.65;99679.81;5057500;28;45252;-61
2021/10/05 08:10:51;;;;;;;;;2.25;1.00;;;;;14.13;75.17;99679.00;5058167;28;45439;-61
2021/10/05 08:13:17;;;;;;;;;1.00;1.00;;;;;14.12;75.78;99672.88;5057761;28;45462;-61
2021/10/05 08:15:42;;;;;;;;;3.00;3.00;;;;;14.13;75.56;99665.81;5057186;28;45450;-61
2021/10/05 08:18:07;;;;;;;;;2.75;2.00;;;;;14.12;75.50;99670.25;5056542;28;65538;-61
2021/10/05 08:20:33;;;;;;;;;1.75;1.00;;;;;14.12;75.59;99661.50;5056930;28;45642;-61
2021/10/05 08:22:58;;;;;;;;;2.00;2.00;;;;;14.09;75.99;99666.16;5056297;28;45499;-61
2021/10/05 08:25:24;;;;;;;;;2.25;1.00;;;;;14.08;75.45;99666.31;5055748;28;49853;-61
2021/10/05 08:27:49;;;;;;;;;4.00;1.75;;;;;14.09;75.65;99679.38;5052670;28;45501;-61
2021/10/05 08:30:15;;;;;;;;;1.25;1.25;;;;;14.10;75.71;99675.72;5054086;28;64120;-61
2021/10/05 08:32:41;;;;;;;;;2.50;1.00;;;;;14.13;75.63;99671.09;5054802;28;45463;-61
2021/10/05 08:35:07;;;;;;;;;1.00;1.00;;;;;14.16;75.94;99673.38;5056364;28;46152;-61
2021/10/05 08:37:32;;;;;;;;;3.00;1.00;;;;;14.16;75.39;99660.16;5054442;28;46012;-62
2021/10/05 08:39:58;;;;;;;;;2.50;2.50;;;;;14.18;75.68;99647.59;5038497;28;45578;-61
2021/10/05 08:42:23;;;;;;;;;2.00;2.00;;;;;14.19;75.73;99660.59;5055885;28;45412;-61
2021/10/05 08:44:50;;;;;;;;;2.00;1.25;;;;;14.21;76.14;99655.16;5056206;28;45452;-60
2021/10/05 08:47:15;;;;;;;;;2.00;2.00;;;;;14.22;75.97;99648.88;5055747;28;45356;-61
2021/10/05 08:49:43;;;;;;;;;1.75;1.75;;;;;14.23;75.66;99645.22;5036989;28;61099;-61
2021/10/05 08:52:08;;;;;;;;;2.25;2.00;;;;;14.23;76.42;99635.47;5055844;28;45881;-61
2021/10/05 08:54:33;;;;;;;;;1.50;1.00;;;;;14.28;75.88;99637.56;5055345;28;69843;-61
2021/10/05 08:56:59;;;;;;;;;1.50;1.50;;;;;14.32;75.69;99638.81;5055496;28;49356;-61
2021/10/05 08:59:24;;;;;;;;;2.00;2.00;;;;;14.34;75.76;99646.56;5055981;28;45578;-61
2021/10/05 09:01:50;;;;;;;;;0.50;0.00;;;;;14.37;75.80;99654.16;5055164;28;56483;-61
2021/10/05 09:04:15;;;;;;;;;2.00;2.00;;;;;14.39;75.54;99642.38;5055268;28;45509;-60
2021/10/05 09:06:43;;;;;;;;;1.75;1.00;;;;;14.42;75.85;99646.50;5055673;28;45452;-61
2021/10/05 09:09:08;;;;;;;;;2.75;1.75;;;;;14.44;75.67;99625.16;5055863;28;45519;-61
2021/10/05 09:11:43;;;;;;;;;2.00;2.00;;;;;14.49;75.05;99636.81;5055630;28;46022;-61
2021/10/05 09:14:08;;;;;;;;;1.00;1.00;;;;;14.51;75.39;99623.41;5055061;28;45430;-61
2021/10/05 09:16:34;;;;;;;;;1.25;1.25;;;;;14.53;75.16;99608.19;5055642;28;45503;-61
2021/10/05 09:19:24;;;;;;;;;2.00;1.00;;;;;14.51;75.30;99626.88;5037416;28;45530;-61
2021/10/05 09:21:52;;;;;;;;;2.00;1.00;;;;;14.50;75.92;99621.78;5035800;28;45433;-61
2021/10/05 09:24:32;;;;;;;;;1.00;1.00;;;;;14.49;75.54;99625.41;5037125;28;45773;-61
2021/10/05 09:27:00;;;;;;;;;1.00;1.00;;;;;14.51;76.02;99671.00;5055333;28;45743;-61
2021/10/05 09:29:33;;;;;;;;;0.00;0.00;;;;;14.54;75.73;99691.78;5037901;28;45522;-61
2021/10/05 09:32:04;;;;;;;;;0.75;0.75;;;;;14.57;75.66;99707.28;5037377;28;45679;-61
2021/10/05 09:34:54;;;;;;;;;0.00;0.00;;;;;14.58;75.22;99714.19;5037143;28;45593;-61
2021/10/05 09:37:20;;;;;;;;;2.00;1.25;;;;;14.60;75.32;99711.34;5054383;28;45991;-61
2021/10/05 09:39:55;;;;;;;;;1.00;0.50;;;;;14.61;75.31;99710.34;5055615;28;46472;-61
2021/10/05 09:42:26;;;;;;;;;2.75;0.00;;;;;14.62;74.77;99715.47;5054884;28;45577;-61
2021/10/05 09:45:07;;;;;;;;;2.00;1.00;;;;;14.60;74.44;99712.19;5054978;28;45491;-61
2021/10/05 09:47:32;;;;;;;;;1.00;1.00;;;;;14.62;74.56;99726.06;5055208;28;46031;-61
2021/10/05 09:49:58;;;;;;;;;0.25;0.00;;;;;14.64;74.50;99721.41;5055567;28;45451;-62
2021/10/05 09:52:23;;;;;;;;;0.25;0.25;;;;;14.66;74.91;99726.50;5054710;28;51796;-61
2021/10/05 09:54:49;;;;;;;;;0.50;0.50;;;;;14.70;74.77;99733.09;5036900;28;45514;-61
2021/10/05 09:57:14;;;;;;;;;1.00;0.50;;;;;14.72;74.28;99728.44;5054188;28;70748;-61
2021/10/05 09:59:39;;;;;;;;;1.50;0.50;;;;;14.73;74.19;99734.56;5052997;28;63508;-61
2021/10/05 10:02:05;;;;;;;;;0.50;0.50;;;;;14.73;73.78;99743.31;5054615;28;45199;-61
2021/10/05 10:04:31;;;;;;;;;0.00;0.00;;;;;14.75;73.41;99745.78;5054355;28;45677;-61
2021/10/05 10:06:56;;;;;;;;;0.00;0.00;;;;;14.76;73.59;99758.00;5054321;28;45218;-61
2021/10/05 10:09:21;;;;;;;;;0.50;0.50;;;;;14.77;73.69;99764.94;5055201;28;45460;-62
2021/10/05 10:11:47;;;;;;;;;0.50;0.50;;;;;14.79;73.67;99773.50;5020439;28;45432;-61
2021/10/05 10:14:12;;;;;;;;;2.00;0.50;;;;;14.79;73.77;99761.09;5036813;28;46322;-60
2021/10/05 10:16:37;;;;;;;;;2.75;1.00;;;;;14.81;73.60;99763.56;5018765;28;71666;-61
2021/10/05 10:19:03;;;;;;;;;2.25;1.00;;;;;14.84;73.98;99760.53;5036094;28;59151;-61
2021/10/05 10:21:33;;;;;;;;;2.25;1.00;;;;;14.86;73.81;99773.56;5054512;28;45498;-61
2021/10/05 10:24:17;;;;;;;;;2.00;1.25;;;;;14.90;73.80;99775.66;5054554;28;45473;-61
2021/10/05 10:26:46;;;;;;;;;2.00;1.25;;;;;14.90;74.04;99791.53;5054368;28;45810;-61
2021/10/05 10:29:13;;;;;;;;;0.75;0.75;;;;;14.92;73.68;99794.81;5036872;28;45412;-61
2021/10/05 10:31:39;;;;;;;;;0.75;0.75;;;;;14.95;73.41;99801.59;5054389;28;45840;-61
2021/10/05 10:34:05;;;;;;;;;2.00;0.75;;;;;14.96;73.40;99803.22;5054376;28;45485;-61
2021/10/05 10:36:37;;;;;;;;;4.00;1.00;;;;;14.98;73.37;99803.88;5054371;28;45455;-61
2021/10/05 10:39:10;;;;;;;;;2.00;1.00;;;;;14.99;73.77;99800.22;5054377;28;45262;-61
2021/10/05 10:41:38;;;;;;;;;0.50;0.50;;;;;15.01;73.78;99814.09;5052469;28;45662;-62
2021/10/05 10:44:05;;;;;;;;;1.00;0.75;;;;;15.05;74.00;99814.53;5054077;28;46215;-61
2021/10/05 10:46:35;;;;;;;;;3.50;1.00;;;;;15.09;73.96;99826.38;5053755;28;45998;-61
2021/10/05 10:49:01;;;;;;;;;5.25;5.25;;;;;15.11;73.56;99821.72;5053910;28;45510;-61
2021/10/05 10:51:27;;;;;;;;;2.75;2.75;;;;;15.17;74.15;99833.41;5053387;28;45446;-61
2021/10/05 10:53:53;;;;;;;;;3.75;0.75;;;;;15.20;74.11;99830.38;5035821;28;46258;-61
2021/10/05 10:56:33;;;;;;;;;6.75;6.50;;;;;15.25;73.97;99833.31;5035976;28;45955;-62
2021/10/05 10:59:06;;;;;;;;;2.25;1.75;;;;;15.31;73.29;99837.06;5054092;28;45315;-61
2021/10/05 11:01:35;;;;;;;;;4.00;1.00;;;;;15.38;73.48;99840.56;5053503;28;45442;-61
2021/10/05 11:04:05;;;;;;;;;1.75;1.75;;;;;15.44;73.23;99839.84;5053286;28;46333;-61
2021/10/05 11:06:30;;;;;;;;;1.75;0.75;;;;;15.49;73.49;99837.47;5053298;28;45492;-60
2021/10/05 11:08:56;;;;;;;;;0.75;0.75;;;;;15.57;73.20;99837.38;5052760;28;64626;-61
2021/10/05 11:11:31;;;;;;;;;1.00;1.00;;;;;15.72;73.44;99836.50;5053365;28;45571;-61
2021/10/05 11:14:01;;;;;;;;;1.50;1.50;;;;;15.88;73.44;99846.06;5054151;28;45466;-61
2021/10/05 11:16:26;;;;;;;;;4.00;2.25;;;;;16.06;73.03;99861.53;5054030;28;45431;-61
2021/10/05 11:19:02;;;;;;;;;2.00;0.75;;;;;16.24;72.13;99852.34;5035985;28;45420;-61
2021/10/05 11:21:31;;;;;;;;;2.75;1.00;;;;;16.37;71.57;99847.16;5052266;28;45279;-62
2021/10/05 11:23:57;;;;;;;;;0.50;0.50;;;;;16.47;71.15;99844.97;5053574;28;46090;-61
2021/10/05 11:26:32;;;;;;;;;1.00;1.00;;;;;16.55;70.48;99853.81;5052689;28;64989;-61
2021/10/05 11:29:01;;;;;;;;;1.00;1.00;;;;;16.59;69.92;99860.38;5053250;28;45494;-61
2021/10/05 11:31:26;;;;;;;;;2.00;1.00;;;;;16.61;68.50;99858.34;5053822;28;45511;-61